North Beach, MD

8:00 AM EDT on July 29, 2016 (GMT -0400)
KMDNORTH17 | | Change Station

Elev 16 ft 38.72 °N, 76.53 °W | Updated 14 seconds ago

Overcast
Overcast
73.9 °F
Feels Like 71 °F
N
1.0
Wind Variable Wind from NE
Gusts 3.0 mph

Today
High -- | Low -- °F
--% Chance of Precip.
Yesterday
High -- | Low -- °F
Precip. -- in
Pressure 29.86 in
Visibility 10.0 miles
Clouds Mostly Cloudy 1400 ft
Overcast 6500 ft
Heat Index 71 °F
Dew Point 73 °F
Humidity 96%
Rainfall 0.11 in
Snow Depth Not available.
6:05 AM 8:19 PM
Waning Crescent, 22% visible
METAR KNAK 291154Z AUTO 35009KT 10SM BKN014 OVC065 24/22 A2985 RMK AO2 SLP109 60005 70125 T02390222 10250 20239 52021 $
Pressure 29.86 in
Visibility 10.0 miles
Clouds Mostly Cloudy 1400 ft
Overcast 6500 ft
Heat Index 71 °F
Dew Point 73 °F
Humidity 96%
Rainfall 0.11 in
Snow Depth Not available.
6:05 AM 8:19 PM
Waning Crescent, 22% visible
METAR KNAK 291154Z AUTO 35009KT 10SM BKN014 OVC065 24/22 A2985 RMK AO2 SLP109 60005 70125 T02390222 10250 20239 52021 $

10-Day Weather Forecast

Almanac

Astronomy

Jul. 29, 2016 Rise Set
Actual Time
Civil Twilight
Nautical Twilight
Astronomical Twilight
Moon
Length of Visible Light
Length of Day
Tomorrow will be .
, % of the Moon is Illuminated

Today's Extremes

State Highs State Lows

Community

WunderPhotos

Upload Photos

1,928,325 photos uploaded!

WunderBlog® & News

Nearby

Air Quality

  Air Quality AQ Index Pollutant
Not available.

Snow Depth

Station Depth Elevation

Earthquake Activity

City Distance Mag. Time & Date
Minimum magnitude displayed is 2.5.

Coastal Water Temperatures

Place Temperature

Stations

Nearby Weather Stations

Station Location Temp. Windchill Dew Point Humidity Wind Precip. Elev Updated Type
                   

Watches & Warnings

There are currently no watches in effect.